Time;durP1;ratioP1;P1;durP2;ratioP2;P2;SDS_P1;SDS_P2;PMS_P1;PMS_P2;Temp;Humidity;BMP_temperature;BMP_pressure;BME280_temperature;BME280_humidity;BME280_pressure;Samples;Min_cycle;Max_cycle;Signal;HPM_P1;HPM_P2
2022/10/18 00:00:58;;;;;;;4.43;3.75;;;9.70;99.90;;;;;;6290832;22;20045;-75
2022/10/18 00:03:24;;;;;;;5.35;3.75;;;9.60;99.90;;;;;;6292299;22;20035;-75
2022/10/18 00:05:50;;;;;;;4.93;4.35;;;9.50;99.90;;;;;;6292715;22;20094;-75
2022/10/18 00:08:17;;;;;;;8.43;4.85;;;9.40;99.90;;;;;;6292619;22;20007;-76
2022/10/18 00:10:43;;;;;;;5.30;4.60;;;9.40;99.90;;;;;;6293123;22;20011;-75
2022/10/18 00:13:09;;;;;;;8.52;4.63;;;9.50;99.90;;;;;;6265649;22;20554;-75
2022/10/18 00:15:34;;;;;;;6.15;5.05;;;9.50;99.90;;;;;;6288872;22;19999;-75
2022/10/18 00:18:00;;;;;;;5.95;4.13;;;9.50;99.90;;;;;;6264000;22;20019;-75
2022/10/18 00:20:26;;;;;;;5.60;4.68;;;9.50;99.90;;;;;;6294646;22;20056;-74
2022/10/18 00:22:52;;;;;;;7.35;4.63;;;9.50;99.90;;;;;;6291275;22;20662;-72
2022/10/18 00:25:17;;;;;;;4.55;4.15;;;9.50;99.90;;;;;;6292699;22;20003;-72
2022/10/18 00:27:43;;;;;;;5.05;4.28;;;9.50;99.90;;;;;;6294143;22;20011;-72
2022/10/18 00:30:09;;;;;;;8.60;4.70;;;9.40;99.90;;;;;;6293099;22;20178;-70
2022/10/18 00:32:39;;;;;;;11.85;4.35;;;9.50;99.90;;;;;;6295573;22;20007;-71
2022/10/18 00:35:06;;;;;;;9.43;5.13;;;9.40;99.90;;;;;;6293044;22;20665;-71
2022/10/18 00:37:33;;;;;;;6.68;4.95;;;9.50;99.90;;;;;;6292598;22;20558;-69
2022/10/18 00:39:59;;;;;;;8.77;4.93;;;9.50;99.90;;;;;;6293980;22;20328;-70
2022/10/18 00:42:29;;;;;;;9.23;3.33;;;9.50;99.90;;;;;;6292490;22;20007;-69
2022/10/18 00:45:20;;;;;;;5.35;4.55;;;9.50;99.90;;;;;;6293677;22;20003;-70
2022/10/18 00:47:54;;;;;;;4.85;3.30;;;9.40;99.90;;;;;;6275132;22;20030;-70
2022/10/18 00:50:21;;;;;;;3.30;2.97;;;9.40;99.90;;;;;;6295177;22;20007;-70
2022/10/18 00:52:52;;;;;;;4.90;3.58;;;9.20;99.90;;;;;;6293969;22;20011;-70
2022/10/18 00:55:18;;;;;;;4.15;3.28;;;9.10;99.90;;;;;;6293519;22;20344;-70
2022/10/18 00:57:44;;;;;;;4.72;4.10;;;9.00;99.90;;;;;;6291445;22;20007;-70
2022/10/18 01:00:11;;;;;;;4.43;4.00;;;9.00;99.90;;;;;;6294065;22;20313;-70
2022/10/18 01:02:39;;;;;;;6.00;4.05;;;9.10;99.90;;;;;;6293469;22;20011;-70
2022/10/18 01:05:06;;;;;;;5.88;4.22;;;9.20;99.90;;;;;;6295345;22;20003;-70
2022/10/18 01:07:41;;;;;;;5.22;3.70;;;9.20;99.90;;;;;;6290668;22;20018;-71
2022/10/18 01:10:36;;;;;;;4.07;3.17;;;9.20;99.90;;;;;;6293021;22;20514;-70
2022/10/18 01:13:22;;;;;;;7.38;3.40;;;9.00;99.90;;;;;;6289359;22;20010;-71
2022/10/18 01:16:05;;;;;;;5.40;3.53;;;8.70;99.90;;;;;;6292803;22;20007;-70
2022/10/18 01:18:47;;;;;;;3.90;3.50;;;8.70;99.90;;;;;;6294452;22;20108;-69
2022/10/18 01:21:19;;;;;;;;;;;8.80;99.90;;;;;;6295463;22;20004;-69
2022/10/18 01:24:17;;;;;;;3.37;3.07;;;8.80;99.90;;;;;;6292217;22;19903;-69
2022/10/18 01:27:01;;;;;;;4.53;3.90;;;8.90;99.90;;;;;;6294146;22;20272;-69
2022/10/18 01:29:59;;;;;;;6.38;3.97;;;8.90;99.90;;;;;;6291580;22;20000;-70
2022/10/18 01:32:30;;;;;;;3.85;3.35;;;8.90;99.90;;;;;;6295129;22;20006;-65
2022/10/18 01:35:00;;;;;;;4.20;2.95;;;9.00;99.90;;;;;;6294591;22;20010;-65
2022/10/18 01:37:28;;;;;;;4.38;3.08;;;8.80;99.90;;;;;;6294610;22;20003;-64
2022/10/18 01:39:55;;;;;;;5.95;3.10;;;8.60;99.90;;;;;;6295465;22;19999;-65
2022/10/18 01:42:21;;;;;;;4.00;2.88;;;8.60;99.90;;;;;;6269940;22;20394;-65
2022/10/18 01:44:50;;;;;;;6.40;3.58;;;8.50;99.90;;;;;;6295567;22;20078;-65
2022/10/18 01:47:18;;;;;;;3.45;3.15;;;8.50;99.90;;;;;;6294716;22;20019;-65
2022/10/18 01:49:44;;;;;;;4.32;3.42;;;8.50;99.90;;;;;;6296982;22;20074;-65
2022/10/18 01:52:13;;;;;;;5.30;3.20;;;8.50;99.90;;;;;;6296767;22;20031;-65
2022/10/18 01:54:47;;;;;;;3.72;3.40;;;8.50;99.90;;;;;;6295901;22;19999;-65
2022/10/18 01:57:24;;;;;;;4.60;3.70;;;8.50;99.90;;;;;;6294072;22;20498;-65
2022/10/18 02:00:23;;;;;;;5.38;3.83;;;8.60;99.90;;;;;;6290928;22;20011;-65
2022/10/18 02:03:15;;;;;;;4.18;3.72;;;8.60;99.90;;;;;;6264700;22;20256;-65
2022/10/18 02:05:51;;;;;;;;;;;8.60;99.90;;;;;;6278230;22;20092;-69
2022/10/18 02:09:01;;;;;;;5.13;3.47;;;8.60;99.90;;;;;;6295482;22;19911;-65
2022/10/18 02:11:29;;;;;;;6.18;4.55;;;8.60;99.90;;;;;;6276295;22;20204;-65
2022/10/18 02:13:59;;;;;;;5.47;4.18;;;8.50;99.90;;;;;;6295786;22;19999;-65
2022/10/18 02:16:36;;;;;;;5.20;4.10;;;8.60;99.90;;;;;;6294900;22;20007;-65
2022/10/18 02:19:28;;;;;;;4.15;3.55;;;8.60;99.90;;;;;;6294961;22;20134;-66
2022/10/18 02:21:56;;;;;;;5.53;3.33;;;8.60;99.90;;;;;;6239680;22;20021;-65
2022/10/18 02:24:29;;;;;;;7.43;3.10;;;8.60;99.90;;;;;;6268632;22;20003;-66
2022/10/18 02:26:54;;;;;;;3.00;2.58;;;8.50;99.90;;;;;;6298632;22;20011;-67
2022/10/18 02:29:21;;;;;;;6.53;3.53;;;8.40;99.90;;;;;;6269789;22;20636;-65
2022/10/18 02:31:49;;;;;;;3.83;3.40;;;8.20;99.90;;;;;;6297804;22;20016;-66
2022/10/18 02:34:38;;;;;;;5.05;3.33;;;8.20;99.90;;;;;;6296721;22;20035;-65
2022/10/18 02:37:04;;;;;;;4.32;3.47;;;8.20;99.90;;;;;;6268288;22;20456;-65
2022/10/18 02:39:34;;;;;;;5.90;3.55;;;8.30;99.90;;;;;;6297563;22;20002;-65
2022/10/18 02:42:05;;;;;;;3.22;2.92;;;8.30;99.90;;;;;;6297184;22;19995;-67
2022/10/18 02:44:34;;;;;;;4.45;3.60;;;8.10;99.90;;;;;;6297441;22;20336;-65
2022/10/18 02:47:00;;;;;;;5.03;3.47;;;8.20;99.90;;;;;;6296445;22;20040;-65
2022/10/18 02:49:26;;;;;;;4.47;3.28;;;8.20;99.90;;;;;;6296325;22;20513;-66
2022/10/18 02:51:52;;;;;;;4.97;3.60;;;8.20;99.90;;;;;;6295876;22;20064;-66
2022/10/18 02:54:17;;;;;;;4.22;3.42;;;8.20;99.90;;;;;;6297808;22;20011;-66
2022/10/18 02:56:43;;;;;;;4.53;3.80;;;8.20;99.90;;;;;;6268977;22;20029;-66
2022/10/18 02:59:08;;;;;;;4.43;3.80;;;8.20;99.90;;;;;;6269644;22;20493;-66
2022/10/18 03:01:35;;;;;;;6.20;4.07;;;8.30;99.90;;;;;;6297024;22;20539;-66
2022/10/18 03:04:00;;;;;;;6.35;5.40;;;8.30;99.90;;;;;;6297841;22;20007;-66
2022/10/18 03:06:26;;;;;;;6.72;3.30;;;8.30;99.90;;;;;;6297574;22;20064;-66
2022/10/18 03:08:52;;;;;;;4.50;3.65;;;8.20;99.90;;;;;;6296284;22;20489;-66
2022/10/18 03:11:17;;;;;;;6.65;3.85;;;8.20;99.90;;;;;;6296129;22;20090;-66
2022/10/18 03:13:43;;;;;;;6.78;3.45;;;8.20;99.90;;;;;;6297656;22;20407;-67
2022/10/18 03:16:08;;;;;;;4.68;3.53;;;8.20;99.90;;;;;;6297027;22;20011;-66
2022/10/18 03:18:34;;;;;;;4.18;3.15;;;8.10;99.90;;;;;;6297782;22;20042;-66
2022/10/18 03:21:06;;;;;;;4.78;3.78;;;7.90;99.90;;;;;;6268262;22;20007;-66
2022/10/18 03:23:32;;;;;;;4.75;3.58;;;7.80;99.90;;;;;;6268975;22;20027;-65
2022/10/18 03:25:58;;;;;;;5.15;3.65;;;7.80;99.90;;;;;;6293462;22;20064;-66
2022/10/18 03:28:24;;;;;;;6.13;3.85;;;7.90;99.90;;;;;;6297760;22;20018;-66
2022/10/18 03:30:49;;;;;;;4.45;3.60;;;7.90;99.90;;;;;;6295118;22;20003;-66
2022/10/18 03:33:15;;;;;;;6.47;3.70;;;7.90;99.90;;;;;;6297239;22;20713;-66
2022/10/18 03:35:40;;;;;;;4.05;3.60;;;7.90;99.90;;;;;;6295457;22;20706;-66
2022/10/18 03:38:06;;;;;;;4.95;3.42;;;7.90;99.90;;;;;;6297906;22;20026;-66
2022/10/18 03:40:32;;;;;;;4.30;3.03;;;8.00;99.90;;;;;;6297497;22;20047;-66
2022/10/18 03:42:57;;;;;;;5.90;3.85;;;7.90;99.90;;;;;;6295441;22;19999;-65
2022/10/18 03:45:23;;;;;;;5.43;3.25;;;7.90;99.90;;;;;;6293122;22;20014;-68
2022/10/18 03:47:48;;;;;;;4.80;3.85;;;7.90;99.90;;;;;;6268100;22;20697;-69
2022/10/18 03:50:14;;;;;;;4.20;3.72;;;7.80;99.90;;;;;;6298198;22;20007;-70
2022/10/18 03:52:40;;;;;;;6.20;4.30;;;7.80;99.90;;;;;;6297502;22;20106;-70
2022/10/18 03:55:06;;;;;;;5.70;3.92;;;7.90;99.90;;;;;;6294561;22;20006;-70
2022/10/18 03:57:31;;;;;;;4.90;3.80;;;7.80;99.90;;;;;;6295971;22;20487;-70
2022/10/18 03:59:57;;;;;;;4.78;3.58;;;7.90;99.90;;;;;;6294774;22;20007;-69
2022/10/18 04:02:22;;;;;;;5.20;3.90;;;7.90;99.90;;;;;;6296531;22;20000;-69
2022/10/18 04:04:48;;;;;;;4.28;3.83;;;8.00;99.90;;;;;;6295826;22;20238;-70
2022/10/18 04:07:14;;;;;;;7.70;5.28;;;8.00;99.90;;;;;;6297706;22;20015;-70
2022/10/18 04:09:40;;;;;;;7.50;5.38;;;8.10;99.90;;;;;;6297029;22;20003;-70
2022/10/18 04:12:06;;;;;;;6.20;5.22;;;8.10;99.90;;;;;;6297842;22;20060;-70
2022/10/18 04:14:31;;;;;;;5.97;4.13;;;8.10;99.90;;;;;;6294571;22;20013;-70
2022/10/18 04:16:57;;;;;;;4.38;2.95;;;8.10;99.90;;;;;;6295024;22;20068;-69
2022/10/18 04:19:22;;;;;;;5.22;3.67;;;8.00;99.90;;;;;;6298544;22;20007;-70
2022/10/18 04:21:48;;;;;;;3.75;3.28;;;7.90;99.90;;;;;;6296890;22;20014;-65
2022/10/18 04:24:16;;;;;;;4.20;3.70;;;7.80;99.90;;;;;;6295239;22;20002;-66
2022/10/18 04:26:42;;;;;;;5.93;2.78;;;7.70;99.90;;;;;;6294536;22;20015;-65
2022/10/18 04:29:07;;;;;;;3.72;3.20;;;7.60;99.90;;;;;;6292431;22;20112;-66
2022/10/18 04:31:33;;;;;;;11.45;3.65;;;7.60;99.90;;;;;;6289936;22;20007;-65
2022/10/18 04:33:59;;;;;;;11.38;4.50;;;7.60;99.90;;;;;;6283478;22;20126;-65
2022/10/18 04:36:24;;;;;;;4.60;4.07;;;7.50;99.90;;;;;;6294145;22;20007;-65
2022/10/18 04:38:50;;;;;;;6.53;5.78;;;7.60;99.90;;;;;;6292540;22;20389;-65
2022/10/18 04:41:15;;;;;;;6.45;5.50;;;7.70;99.90;;;;;;6291378;22;20120;-65
2022/10/18 04:43:41;;;;;;;7.63;6.15;;;7.80;99.90;;;;;;6292572;22;20000;-65
2022/10/18 04:46:07;;;;;;;8.93;4.25;;;7.80;99.90;;;;;;6293022;22;20434;-65
2022/10/18 04:48:32;;;;;;;5.07;3.10;;;7.70;99.90;;;;;;6296135;22;20014;-65
2022/10/18 04:50:58;;;;;;;5.82;3.00;;;7.60;99.90;;;;;;6289153;22;20003;-65
2022/10/18 04:53:23;;;;;;;3.63;3.03;;;7.30;99.90;;;;;;6259203;22;20015;-65
2022/10/18 04:55:50;;;;;;;4.47;3.20;;;7.20;99.90;;;;;;6284740;22;20118;-66
2022/10/18 04:58:16;;;;;;;5.00;3.90;;;7.20;99.90;;;;;;6288858;22;20016;-66
2022/10/18 05:00:42;;;;;;;6.45;4.85;;;7.20;99.90;;;;;;6283374;22;20011;-66
2022/10/18 05:03:10;;;;;;;10.55;7.35;;;7.30;99.90;;;;;;6287598;22;20501;-66
2022/10/18 05:05:36;;;;;;;10.88;8.23;;;7.40;99.90;;;;;;6290378;22;20690;-66
2022/10/18 05:08:01;;;;;;;13.70;9.23;;;7.50;99.90;;;;;;6291089;22;20071;-69
2022/10/18 05:10:27;;;;;;;10.32;7.28;;;7.50;99.90;;;;;;6289875;22;20357;-67
2022/10/18 05:12:53;;;;;;;12.45;7.90;;;7.50;99.90;;;;;;6291161;22;20011;-66
2022/10/18 05:15:18;;;;;;;6.78;4.63;;;7.40;99.90;;;;;;6290962;22;20014;-66
2022/10/18 05:17:44;;;;;;;4.47;4.07;;;7.40;99.90;;;;;;6289807;22;20023;-65
2022/10/18 05:20:09;;;;;;;6.00;4.57;;;7.30;99.90;;;;;;6292049;22;19999;-74
2022/10/18 05:22:35;;;;;;;5.03;3.92;;;7.30;99.90;;;;;;6291423;22;20778;-74
2022/10/18 05:25:01;;;;;;;8.95;5.32;;;7.30;99.90;;;;;;6265510;22;20442;-74
2022/10/18 05:27:27;;;;;;;9.95;5.45;;;7.30;99.90;;;;;;6266411;22;20515;-74
2022/10/18 05:29:53;;;;;;;12.98;5.85;;;7.30;99.90;;;;;;6264243;22;20000;-74
2022/10/18 05:32:18;;;;;;;8.57;5.55;;;7.40;99.90;;;;;;6293925;22;20101;-75
2022/10/18 05:34:44;;;;;;;9.55;7.28;;;7.50;99.90;;;;;;6292020;22;20141;-75
2022/10/18 05:37:10;;;;;;;8.30;6.43;;;7.60;99.90;;;;;;6292749;22;20042;-75
2022/10/18 05:39:36;;;;;;;12.35;6.70;;;7.60;99.90;;;;;;6292789;22;20030;-73
2022/10/18 05:42:02;;;;;;;6.25;5.43;;;7.60;99.90;;;;;;6292080;22;20059;-74
2022/10/18 05:44:28;;;;;;;7.93;6.68;;;7.60;99.90;;;;;;6293249;22;20100;-72
2022/10/18 05:46:53;;;;;;;7.97;6.47;;;7.60;99.90;;;;;;6293346;22;20022;-74
2022/10/18 05:49:19;;;;;;;7.38;5.60;;;7.60;99.90;;;;;;6293161;22;20479;-74
2022/10/18 05:51:45;;;;;;;6.88;5.43;;;7.60;99.90;;;;;;6293375;22;20597;-73
2022/10/18 05:54:11;;;;;;;9.38;5.15;;;7.60;99.90;;;;;;6296378;22;20003;-74
2022/10/18 05:56:37;;;;;;;5.85;5.20;;;7.60;99.90;;;;;;6298406;22;20007;-73
2022/10/18 05:59:06;;;;;;;10.68;5.68;;;7.70;99.90;;;;;;6298235;22;20003;-66
2022/10/18 06:01:32;;;;;;;16.42;7.85;;;7.70;99.90;;;;;;6297135;22;20004;-66
2022/10/18 06:03:57;;;;;;;6.60;5.68;;;7.80;99.90;;;;;;6297182;22;20006;-65
2022/10/18 06:06:23;;;;;;;8.57;5.97;;;7.80;99.90;;;;;;6298864;22;20015;-65
2022/10/18 06:08:49;;;;;;;6.63;5.80;;;7.90;99.90;;;;;;6298108;22;20008;-65
2022/10/18 06:11:17;;;;;;;6.28;5.68;;;7.90;99.90;;;;;;6297491;22;20003;-65
2022/10/18 06:13:44;;;;;;;5.65;5.05;;;7.90;99.90;;;;;;6292902;22;20005;-66
2022/10/18 06:16:11;;;;;;;9.23;4.72;;;7.70;99.90;;;;;;6267064;22;20094;-66
2022/10/18 06:18:37;;;;;;;8.30;5.82;;;7.70;99.90;;;;;;6297991;22;20019;-66
2022/10/18 06:21:03;;;;;;;9.13;7.28;;;7.80;99.90;;;;;;6298230;22;20420;-65
2022/10/18 06:23:28;;;;;;;10.70;7.60;;;7.90;99.90;;;;;;6270775;22;20379;-66
2022/10/18 06:26:02;;;;;;;11.25;8.55;;;8.10;99.90;;;;;;6297503;22;20049;-66
2022/10/18 06:28:28;;;;;;;16.02;11.15;;;8.20;99.90;;;;;;6298440;22;20309;-66
2022/10/18 06:30:54;;;;;;;10.95;7.97;;;8.30;99.90;;;;;;6296880;22;20077;-66
2022/10/18 06:33:20;;;;;;;8.65;6.60;;;8.40;99.90;;;;;;6297256;22;20051;-66
2022/10/18 06:36:16;;;;;;;12.10;6.53;;;8.50;99.90;;;;;;6298585;22;19999;-66
2022/10/18 06:38:42;;;;;;;9.93;7.82;;;8.70;99.90;;;;;;6265787;22;20011;-66
2022/10/18 06:41:07;;;;;;;16.38;9.93;;;8.90;99.90;;;;;;6299285;22;20137;-66
2022/10/18 06:43:33;;;;;;;13.65;9.10;;;9.10;99.90;;;;;;6297148;22;20006;-66
2022/10/18 06:46:02;;;;;;;11.38;9.05;;;9.30;99.90;;;;;;6296088;22;20027;-67
2022/10/18 06:48:27;;;;;;;12.25;9.98;;;9.50;99.90;;;;;;6296239;22;19995;-66
2022/10/18 06:50:55;;;;;;;14.88;11.88;;;9.70;99.90;;;;;;6297607;22;20010;-66
2022/10/18 06:53:22;;;;;;;16.42;11.88;;;9.90;99.90;;;;;;6296979;22;20068;-66
2022/10/18 06:55:47;;;;;;;15.73;11.05;;;10.10;99.90;;;;;;6298669;22;20007;-64
2022/10/18 06:58:13;;;;;;;12.38;11.07;;;10.30;99.90;;;;;;6297909;22;20433;-64
2022/10/18 07:00:39;;;;;;;14.45;11.10;;;10.60;99.90;;;;;;6297523;22;20393;-64
2022/10/18 07:03:04;;;;;;;14.75;12.07;;;10.90;99.90;;;;;;6268795;22;20073;-64
2022/10/18 07:05:30;;;;;;;16.80;12.93;;;11.10;99.90;;;;;;6297316;22;20378;-64
2022/10/18 07:07:56;;;;;;;20.88;13.10;;;11.40;99.90;;;;;;6297844;22;20285;-66
2022/10/18 07:10:22;;;;;;;21.40;15.55;;;11.50;99.90;;;;;;6296958;22;20486;-65
2022/10/18 07:12:48;;;;;;;16.90;13.75;;;11.80;99.90;;;;;;6293041;22;20013;-65
2022/10/18 07:15:14;;;;;;;18.67;13.98;;;12.00;99.90;;;;;;6295369;22;20414;-73
2022/10/18 07:17:40;;;;;;;17.80;14.00;;;12.20;99.90;;;;;;6298859;22;20105;-72
2022/10/18 07:20:06;;;;;;;16.08;12.88;;;12.40;99.90;;;;;;6298424;22;20003;-73
2022/10/18 07:22:32;;;;;;;18.08;13.20;;;12.70;99.90;;;;;;6270511;22;20169;-73
2022/10/18 07:24:58;;;;;;;17.60;12.80;;;12.90;99.90;;;;;;6297602;22;20018;-73
2022/10/18 07:27:24;;;;;;;15.13;12.27;;;13.10;99.90;;;;;;6298664;22;20007;-73
2022/10/18 07:29:49;;;;;;;18.55;12.75;;;13.30;99.90;;;;;;6297737;22;20022;-72
2022/10/18 07:32:15;;;;;;;19.08;15.32;;;13.50;99.90;;;;;;6298098;22;20387;-73
2022/10/18 07:34:40;;;;;;;25.45;16.15;;;13.70;99.90;;;;;;6299258;22;20337;-74
2022/10/18 07:37:06;;;;;;;21.63;14.90;;;13.90;99.90;;;;;;6296253;22;20344;-74
2022/10/18 07:39:32;;;;;;;15.13;12.40;;;14.10;99.90;;;;;;6299187;22;20008;-73
2022/10/18 07:41:57;;;;;;;11.32;8.68;;;14.30;99.90;;;;;;6293858;22;20322;-73
2022/10/18 07:44:23;;;;;;;9.32;7.45;;;14.50;99.90;;;;;;6295682;22;20012;-72
2022/10/18 07:46:48;;;;;;;8.65;6.22;;;14.70;99.90;;;;;;6290363;22;20045;-73
2022/10/18 07:49:14;;;;;;;8.70;6.75;;;14.90;99.90;;;;;;6297145;22;20537;-73
2022/10/18 07:51:39;;;;;;;7.75;6.07;;;15.10;99.90;;;;;;6296917;22;20004;-72
2022/10/18 07:54:05;;;;;;;9.98;6.03;;;15.30;99.90;;;;;;6296522;22;20010;-65
2022/10/18 07:56:31;;;;;;;7.65;6.10;;;15.60;99.90;;;;;;6297389;22;20007;-65
2022/10/18 07:58:57;;;;;;;7.38;5.72;;;15.80;99.90;;;;;;6295235;22;20421;-65
2022/10/18 08:01:23;;;;;;;11.43;5.80;;;16.00;99.90;;;;;;6294791;22;20810;-66
2022/10/18 08:03:50;;;;;;;10.65;6.72;;;16.20;99.90;;;;;;6292329;22;20014;-65
2022/10/18 08:06:17;;;;;;;8.65;6.00;;;16.30;99.90;;;;;;6297545;22;20011;-65
2022/10/18 08:08:44;;;;;;;8.07;6.68;;;16.40;99.90;;;;;;6297698;22;20537;-65
2022/10/18 08:11:16;;;;;;;9.10;6.82;;;16.60;99.90;;;;;;6294550;22;20434;-72
2022/10/18 08:13:42;;;;;;;7.47;6.13;;;16.60;99.90;;;;;;6295735;22;20003;-75
2022/10/18 08:16:11;;;;;;;8.65;6.05;;;16.70;99.90;;;;;;6267873;22;20003;-72
2022/10/18 08:18:37;;;;;;;10.50;6.22;;;16.60;99.90;;;;;;6291397;22;20019;-71
2022/10/18 08:21:05;;;;;;;12.52;7.13;;;16.70;99.90;;;;;;6296110;22;20086;-70
2022/10/18 08:23:32;;;;;;;8.50;6.45;;;16.70;99.90;;;;;;6290735;22;20010;-72
2022/10/18 08:26:02;;;;;;;8.52;6.13;;;16.80;99.90;;;;;;6290888;22;20138;-72
2022/10/18 08:28:28;;;;;;;7.32;6.32;;;16.90;99.90;;;;;;6292613;22;20159;-71
2022/10/18 08:30:53;;;;;;;8.60;6.30;;;16.80;99.90;;;;;;6290790;22;20510;-72
2022/10/18 08:33:19;;;;;;;8.63;6.20;;;16.80;99.90;;;;;;6297800;22;20360;-72
2022/10/18 08:35:57;;;;;;;8.15;6.30;;;16.80;99.90;;;;;;6297087;22;20082;-72
2022/10/18 08:38:23;;;;;;;8.20;5.82;;;16.90;99.90;;;;;;6296371;22;19996;-72
2022/10/18 08:40:49;;;;;;;6.85;5.78;;;16.90;99.90;;;;;;6296052;22;20045;-72
2022/10/18 08:43:40;;;;;;;14.13;6.30;;;16.90;99.90;;;;;;6297280;22;20027;-72
2022/10/18 08:46:10;;;;;;;6.90;6.20;;;17.00;99.90;;;;;;6294421;22;20475;-72
2022/10/18 08:48:41;;;;;;;9.10;6.07;;;17.10;99.90;;;;;;6296772;22;20003;-73
2022/10/18 08:51:36;;;;;;;9.35;5.63;;;17.10;99.90;;;;;;6293714;22;20432;-72
2022/10/18 08:54:21;;;;;;;8.80;4.90;;;17.20;99.90;;;;;;6264309;22;20045;-73
2022/10/18 08:57:00;;;;;;;5.70;4.80;;;17.30;99.90;;;;;;6296767;22;20088;-73
2022/10/18 08:59:31;;;;;;;7.07;5.53;;;17.50;99.90;;;;;;6295976;22;20004;-74
2022/10/18 09:02:03;;;;;;;8.52;5.03;;;17.50;99.90;;;;;;6295096;22;20003;-73
2022/10/18 09:04:47;;;;;;;5.82;5.05;;;17.50;99.90;;;;;;6296495;22;20620;-73
2022/10/18 09:07:25;;;;;;;6.53;5.20;;;17.50;99.90;;;;;;6296350;22;20015;-74
2022/10/18 09:10:05;;;;;;;8.48;4.90;;;17.60;99.90;;;;;;6293139;22;20718;-73
2022/10/18 09:13:16;;;;;;;6.57;5.05;;;17.70;99.90;;;;;;6297947;22;20899;-72
2022/10/18 09:16:13;;;;;;;10.32;5.03;;;17.70;99.90;;;;;;6261210;22;20832;-71
2022/10/18 09:18:48;;;;;;;5.85;5.00;;;17.90;99.90;;;;;;6292855;22;20050;-71
2022/10/18 09:21:21;;;;;;;7.85;5.82;;;17.90;99.90;;;;;;6296143;22;19999;-72
2022/10/18 09:24:03;;;;;;;8.30;5.32;;;17.90;99.90;;;;;;6295412;22;20000;-71
2022/10/18 09:26:37;;;;;;;40.25;9.73;;;18.00;99.90;;;;;;6295240;22;20053;-71
2022/10/18 09:29:28;;;;;;;19.42;7.00;;;18.20;99.90;;;;;;6294599;22;20007;-66
2022/10/18 09:31:56;;;;;;;12.63;6.25;;;18.20;99.90;;;;;;6294748;22;20592;-66
2022/10/18 09:34:28;;;;;;;8.27;5.90;;;18.30;99.90;;;;;;6295769;22;20003;-66
2022/10/18 09:36:54;;;;;;;10.02;5.22;;;18.50;99.90;;;;;;6296187;22;20030;-66
2022/10/18 09:39:36;;;;;;;22.95;7.93;;;18.40;99.90;;;;;;6266322;22;20699;-65
2022/10/18 09:42:10;;;;;;;6.53;4.82;;;18.50;99.90;;;;;;6288153;22;20590;-65
2022/10/18 09:44:40;;;;;;;25.08;8.82;;;18.60;99.90;;;;;;6288006;22;20348;-65
2022/10/18 09:47:38;;;;;;;6.95;4.70;;;18.70;99.90;;;;;;6289463;22;20344;-65
2022/10/18 09:50:20;;;;;;;8.95;4.68;;;18.80;99.90;;;;;;6293518;22;20007;-65
2022/10/18 09:52:56;;;;;;;8.00;4.80;;;18.80;99.90;;;;;;6289906;22;20511;-65
2022/10/18 09:55:26;;;;;;;6.85;4.82;;;18.90;99.90;;;;;;6293797;22;19999;-65
2022/10/18 09:57:56;;;;;;;6.88;4.10;;;18.90;99.90;;;;;;6295539;22;20388;-65
2022/10/18 10:00:30;;;;;;;6.22;4.70;;;18.90;99.90;;;;;;6289825;22;20072;-65
2022/10/18 10:02:57;;;;;;;7.53;4.60;;;18.90;99.90;;;;;;6293321;22;20630;-65
2022/10/18 10:05:23;;;;;;;8.68;4.38;;;19.00;99.90;;;;;;6293720;22;20068;-65
2022/10/18 10:07:48;;;;;;;9.60;4.28;;;19.00;99.90;;;;;;6265376;22;20070;-65
2022/10/18 10:10:23;;;;;;;8.18;4.65;;;19.00;99.90;;;;;;6295487;22;19999;-65
2022/10/18 10:13:02;;;;;;;4.05;3.65;;;19.10;99.90;;;;;;6296208;22;20353;-65
2022/10/18 10:15:28;;;;;;;8.48;3.35;;;19.20;99.90;;;;;;6294233;22;20405;-65
2022/10/18 10:18:00;;;;;;;4.70;3.53;;;19.30;99.90;;;;;;6295587;22;20043;-65
2022/10/18 10:20:44;;;;;;;5.13;3.22;;;19.40;99.90;;;;;;6295591;22;19999;-65
2022/10/18 10:23:18;;;;;;;4.10;2.80;;;19.50;99.90;;;;;;6295591;22;20027;-65
2022/10/18 10:25:51;;;;;;;4.43;2.80;;;19.60;97.70;;;;;;6293827;22;20003;-70
2022/10/18 10:28:20;;;;;;;8.85;3.00;;;19.60;95.50;;;;;;6298513;22;20017;-71
2022/10/18 10:30:46;;;;;;;3.38;2.53;;;19.60;94.40;;;;;;6294347;22;20023;-71
2022/10/18 10:33:30;;;;;;;3.53;3.10;;;19.60;92.30;;;;;;6297203;22;20011;-72
2022/10/18 10:36:01;;;;;;;6.80;3.42;;;19.70;93.30;;;;;;6284248;22;20058;-72
2022/10/18 10:38:29;;;;;;;6.18;3.35;;;19.80;92.70;;;;;;6288131;22;20007;-70
2022/10/18 10:40:56;;;;;;;5.72;3.08;;;19.90;92.40;;;;;;6284030;22;20041;-71
2022/10/18 10:43:28;;;;;;;6.53;3.08;;;20.00;92.50;;;;;;6260421;22;20011;-70
2022/10/18 10:45:59;;;;;;;2.78;2.58;;;19.90;89.80;;;;;;6292526;22;20409;-72
2022/10/18 10:48:26;;;;;;;6.05;3.28;;;19.80;90.50;;;;;;6269500;22;20008;-71
2022/10/18 10:50:53;;;;;;;9.13;3.00;;;19.70;89.10;;;;;;6294042;22;20007;-73
2022/10/18 10:53:31;;;;;;;4.10;2.78;;;19.70;90.40;;;;;;6297106;22;20387;-74
2022/10/18 10:55:57;;;;;;;3.25;2.67;;;19.80;90.10;;;;;;6286812;22;20380;-73
2022/10/18 10:58:25;;;;;;;9.00;3.05;;;20.00;89.20;;;;;;6293770;22;20314;-73
2022/10/18 11:00:51;;;;;;;5.88;3.00;;;20.00;88.50;;;;;;6266036;22;20097;-73
2022/10/18 11:03:19;;;;;;;4.63;3.17;;;20.00;88.90;;;;;;6299882;22;20384;-72
2022/10/18 11:05:51;;;;;;;4.68;3.05;;;20.10;88.90;;;;;;6295709;22;20291;-73
2022/10/18 11:08:22;;;;;;;9.15;3.60;;;20.10;86.40;;;;;;6294175;22;20115;-74
2022/10/18 11:11:20;;;;;;;8.77;3.00;;;20.10;85.60;;;;;;6291747;22;20635;-73
2022/10/18 11:13:50;;;;;;;7.75;3.17;;;20.10;85.90;;;;;;6295717;22;20019;-75
2022/10/18 11:16:24;;;;;;;4.88;2.95;;;20.10;86.30;;;;;;6296394;22;20003;-74
2022/10/18 11:18:52;;;;;;;5.50;3.15;;;20.10;86.50;;;;;;6295546;22;20566;-73
2022/10/18 11:21:27;;;;;;;4.88;3.08;;;20.20;87.30;;;;;;6296092;22;20361;-73
2022/10/18 11:23:53;;;;;;;5.20;2.55;;;20.20;85.90;;;;;;6296920;22;20015;-74
2022/10/18 11:26:30;;;;;;;5.53;3.28;;;20.30;86.20;;;;;;6296500;22;20030;-73
2022/10/18 11:29:26;;;;;;;6.35;3.50;;;20.30;86.90;;;;;;6296381;22;19999;-74
2022/10/18 11:32:10;;;;;;;4.85;3.47;;;20.40;87.60;;;;;;6296361;22;20003;-74
2022/10/18 11:35:20;;;;;;;9.63;3.53;;;20.40;87.20;;;;;;6296247;22;20011;-74
2022/10/18 11:38:07;;;;;;;5.38;3.35;;;20.60;88.00;;;;;;6140503;23;20142;-73
2022/10/18 11:41:02;;;;;;;4.40;3.45;;;20.60;87.40;;;;;;6142026;23;20477;-73
2022/10/18 11:43:33;;;;;;;7.43;3.67;;;20.60;87.10;;;;;;6274104;22;20391;-73
2022/10/18 11:46:36;;;;;;;5.43;3.65;;;20.60;87.90;;;;;;6295983;22;20007;-72
2022/10/18 11:49:14;;;;;;;11.55;3.70;;;20.70;88.60;;;;;;6297706;22;20007;-72
2022/10/18 11:51:48;;;;;;;6.88;3.08;;;20.80;86.60;;;;;;6296822;22;20003;-73
2022/10/18 11:54:40;;;;;;;8.40;3.47;;;20.80;85.70;;;;;;6298055;22;20011;-73
2022/10/18 11:57:33;;;;;;;4.03;3.22;;;20.70;84.30;;;;;;6295131;22;20011;-73
2022/10/18 12:00:26;;;;;;;6.63;4.07;;;20.80;86.10;;;;;;6294876;22;20003;-65
2022/10/18 12:03:14;;;;;;;4.35;3.47;;;20.90;83.00;;;;;;6293848;22;20008;-65
2022/10/18 12:05:42;;;;;;;3.97;3.53;;;20.90;83.00;;;;;;6292587;22;20073;-65
2022/10/18 12:08:16;;;;;;;8.82;3.65;;;20.90;82.30;;;;;;6291555;22;20007;-65
2022/10/18 12:10:51;;;;;;;5.45;3.28;;;20.90;82.10;;;;;;6291925;22;20057;-66
2022/10/18 12:13:38;;;;;;;7.97;3.60;;;20.80;82.20;;;;;;6294331;22;20318;-65
2022/10/18 12:16:07;;;;;;;6.68;2.90;;;20.80;80.80;;;;;;6259659;22;20014;-66
2022/10/18 12:18:34;;;;;;;4.35;2.88;;;20.80;80.50;;;;;;6287467;22;20050;-65
2022/10/18 12:21:01;;;;;;;4.22;3.20;;;20.80;78.90;;;;;;6289587;22;20059;-72
2022/10/18 12:23:36;;;;;;;4.60;3.28;;;20.80;80.60;;;;;;6257144;22;20414;-73
2022/10/18 12:26:04;;;;;;;5.72;3.00;;;20.90;81.90;;;;;;6291997;22;20365;-72
2022/10/18 12:28:45;;;;;;;3.60;2.78;;;20.90;80.00;;;;;;6288425;22;20561;-72
2022/10/18 12:31:39;;;;;;;3.10;2.70;;;20.90;75.10;;;;;;6290583;22;20033;-73
2022/10/18 12:34:20;;;;;;;7.22;3.22;;;20.90;77.10;;;;;;6297306;22;20263;-72
2022/10/18 12:37:00;;;;;;;4.85;3.00;;;20.90;77.60;;;;;;6290743;22;19999;-72
2022/10/18 12:39:32;;;;;;;7.28;3.25;;;20.80;78.80;;;;;;6297334;22;20014;-72
2022/10/18 12:41:57;;;;;;;7.83;3.27;;;20.90;79.80;;;;;;6266888;22;20027;-73
2022/10/18 12:44:30;;;;;;;4.53;3.10;;;20.90;80.00;;;;;;6295614;22;20321;-72
2022/10/18 12:47:01;;;;;;;4.18;2.90;;;21.00;79.00;;;;;;6292552;22;20015;-74
2022/10/18 12:49:38;;;;;;;5.30;3.20;;;21.10;77.30;;;;;;6297372;22;20452;-72
2022/10/18 12:52:20;;;;;;;4.95;2.75;;;21.20;76.20;;;;;;6295595;22;20074;-72
2022/10/18 12:55:12;;;;;;;5.13;2.78;;;21.30;74.50;;;;;;6296669;22;20030;-73
2022/10/18 12:57:53;;;;;;;5.95;2.78;;;21.40;73.80;;;;;;6296261;22;20003;-66
2022/10/18 13:00:30;;;;;;;4.03;2.85;;;21.50;72.60;;;;;;6290472;22;20496;-66
2022/10/18 13:03:11;;;;;;;3.20;2.55;;;21.50;71.90;;;;;;6282705;22;20072;-66
2022/10/18 13:05:45;;;;;;;3.92;2.63;;;21.40;71.00;;;;;;6290122;22;20459;-65
2022/10/18 13:08:26;;;;;;;8.98;3.28;;;21.60;71.10;;;;;;6267863;22;20066;-65
2022/10/18 13:11:10;;;;;;;3.45;2.35;;;21.70;72.00;;;;;;6295611;22;20003;-65